map of VAF home
VAF - Airport
Location
City:  Valence, Rhône-Alpes, France
Name:Chabeuil
ICAO:LFLU
IATA:VAF

Details
Type:Airport (Aerodrome, Airfield)
Use:Public/Civil
Latitude:44°54'56"N (44.915558)
Longitude:4°58'07"E (4.968744)
Elevation:525 ft (160 m)
Variation:1.58°E (WMM2015 magnetic declination)
0.12° annual change
Runways:3
Longest:6890 × 148 ft (2100 × 45 m)

Time
Time Zone:UTC+1 (DST+2)
Local Time:

Weather
METAR:LFLU 161800Z AUTO 35006KT 9999 OVC020 10/08 Q1022

Related Locations
Nearby:
Farthest:CHT: 12330 mi / 19844 km
Waitangi [Tuuta], CIT, NZ

Find:

   beyond  
but within

Other Information
Maps:
NOTAMs:
Links:
Sources:

  
  • flag of France
  • flag of Rhône-Alpes
  

Sectional Chart

Flight Planning
at skyvector.com

Satellite Image

Google Maps Satellite view

 

Copyright © 2004-2018 Karl L. Swartz. All rights reserved.
The Great Circle Mapper name and logo are trademarks of the Great Circle Mapper.
All other trademarks mentioned herein belong to their respective owners.
Please see credits for attibutions and further copyright information.

  Follow gcmap on Facebook Follow gcmap on Twitter Follow gcmap on Google+ GCmap on LinkedIn

hCard Microformat

Geo Microformat